Time,TemperatureF,DewpointF,PressureIn,WindDirection,WindDirectionDegrees,WindSpeedMPH,WindSpeedGustMPH,Humidity,HourlyPrecipIn,Conditions,Clouds,dailyrainin,SoftwareType,DateUTC
2013-05-18 00:00:00,77.9,65.2,30.06,North,0,0.0,0.0,65,0.00,,SCT120,0.00,VWS V14.01,2013-05-18 04:00:00,
2013-05-18 00:01:00,77.9,65.6,30.06,North,0,0.0,0.0,66,0.00,,SCT120,0.00,VWS V14.01,2013-05-18 04:01:00,
2013-05-18 00:06:00,77.5,65.3,30.06,North,0,0.0,0.0,66,0.00,,SCT120,0.00,VWS V14.01,2013-05-18 04:06:00,
2013-05-18 00:11:00,77.4,65.6,30.06,North,0,0.0,0.0,67,0.00,,SCT120,0.00,VWS V14.01,2013-05-18 04:11:00,
2013-05-18 00:16:00,77.4,66.0,30.06,North,0,0.0,0.0,68,0.00,,SCT120,0.00,VWS V14.01,2013-05-18 04:16:00,
2013-05-18 00:21:00,77.4,66.0,30.06,North,0,0.0,0.0,68,0.00,,SCT120,0.00,VWS V14.01,2013-05-18 04:21:00,
2013-05-18 00:26:00,77.5,66.2,30.06,North,0,0.0,0.0,68,0.00,,SCT120,0.00,VWS V14.01,2013-05-18 04:26:00,
2013-05-18 00:31:00,77.4,66.0,30.06,North,0,0.0,0.0,68,0.00,,SCT120,0.00,VWS V14.01,2013-05-18 04:31:00,
2013-05-18 00:36:00,77.4,66.0,30.06,North,0,0.0,0.0,68,0.00,,SCT120,0.00,VWS V14.01,2013-05-18 04:36:00,
2013-05-18 00:41:00,77.2,65.8,30.06,North,0,0.0,0.0,68,0.00,,SCT120,0.00,VWS V14.01,2013-05-18 04:41:00,
2013-05-18 00:46:00,77.0,65.6,30.06,North,0,0.0,0.0,68,0.00,,SCT120,0.00,VWS V14.01,2013-05-18 04:46:00,
2013-05-18 00:51:00,76.6,65.3,30.06,North,0,0.0,0.0,68,0.00,,SCT120,0.00,VWS V14.01,2013-05-18 04:51:00,
2013-05-18 00:56:00,76.6,66.1,30.03,North,0,0.0,0.0,70,0.00,,SCT120,0.00,VWS V14.01,2013-05-18 04:56:00,
2013-05-18 01:01:00,76.6,66.1,30.03,North,0,0.0,0.0,70,0.00,,SCT120,0.00,VWS V14.01,2013-05-18 05:01:00,
2013-05-18 01:06:00,76.8,66.3,30.03,North,0,0.0,0.0,70,0.00,,SCT120,0.00,VWS V14.01,2013-05-18 05:06:00,
2013-05-18 01:11:00,76.8,66.3,30.03,North,0,0.0,0.0,70,0.00,,SCT120,0.00,VWS V14.01,2013-05-18 05:11:00,
2013-05-18 01:16:00,76.6,66.1,30.03,North,0,0.0,0.0,70,0.00,,SCT120,0.00,VWS V14.01,2013-05-18 05:16:00,
2013-05-18 01:21:00,76.3,65.4,30.03,North,0,0.0,0.0,69,0.00,,SCT120,0.00,VWS V14.01,2013-05-18 05:21:00,
2013-05-18 01:26:00,76.3,65.4,30.03,North,0,0.0,0.0,69,0.00,,SCT120,0.00,VWS V14.01,2013-05-18 05:26:00,
2013-05-18 01:31:00,76.3,65.4,30.03,North,0,0.0,0.0,69,0.00,,SCT120,0.00,VWS V14.01,2013-05-18 05:31:00,
2013-05-18 01:36:00,76.3,65.4,30.03,North,0,0.0,0.0,69,0.00,,SCT120,0.00,VWS V14.01,2013-05-18 05:36:00,
2013-05-18 01:41:00,76.3,65.8,30.03,North,0,0.0,0.0,70,0.00,,SCT120,0.00,VWS V14.01,2013-05-18 05:41:00,
2013-05-18 01:46:00,75.9,65.4,30.03,North,0,0.0,0.0,70,0.00,,SCT120,0.00,VWS V14.01,2013-05-18 05:46:00,
2013-05-18 01:51:00,75.6,65.1,30.03,North,0,0.0,0.0,70,0.00,,SCT120,0.00,VWS V14.01,2013-05-18 05:51:00,
2013-05-18 01:56:00,75.4,65.3,30.03,North,0,0.0,0.0,71,0.00,,SCT120,0.00,VWS V14.01,2013-05-18 05:56:00,
2013-05-18 02:01:00,75.4,65.7,30.03,North,0,0.0,0.0,72,0.00,,SCT120,0.00,VWS V14.01,2013-05-18 06:01:00,
2013-05-18 02:06:00,75.6,65.9,30.03,North,0,0.0,0.0,72,0.00,,SCT120,0.00,VWS V14.01,2013-05-18 06:06:00,
2013-05-18 02:11:00,75.7,66.5,30.03,North,0,0.0,0.0,73,0.00,,SCT120,0.00,VWS V14.01,2013-05-18 06:11:00,
2013-05-18 02:16:00,75.7,66.1,30.03,North,0,0.0,0.0,72,0.00,,SCT120,0.00,VWS V14.01,2013-05-18 06:16:00,
2013-05-18 02:21:00,75.9,66.2,30.03,North,0,0.0,0.0,72,0.00,,SCT120,0.00,VWS V14.01,2013-05-18 06:21:00,
2013-05-18 02:26:00,75.7,65.3,30.03,North,0,0.0,0.0,70,0.00,,SCT120,0.00,VWS V14.01,2013-05-18 06:26:00,
2013-05-18 06:34:00,72.9,65.2,30.06,North,0,0.0,0.0,77,0.00,,SCT120,0.00,VWS V14.01,2013-05-18 10:34:00,
2013-05-18 06:39:00,73.0,65.4,30.06,North,0,0.0,0.0,77,0.00,,SCT120,0.00,VWS V14.01,2013-05-18 10:39:00,
2013-05-18 06:43:00,73.4,65.8,30.06,North,0,0.0,0.0,77,0.00,,SCT120,0.00,VWS V14.01,2013-05-18 10:43:00,
2013-05-18 06:48:00,73.8,65.7,30.06,North,0,0.0,0.0,76,0.00,,SCT120,0.00,VWS V14.01,2013-05-18 10:48:00,
2013-05-18 06:53:00,74.1,66.1,30.06,North,0,0.0,0.0,76,0.00,,SCT120,0.00,VWS V14.01,2013-05-18 10:53:00,
2013-05-18 06:58:00,74.5,66.4,30.06,North,0,0.0,0.0,76,0.00,,SCT120,0.00,VWS V14.01,2013-05-18 10:58:00,
2013-05-18 07:03:00,74.8,66.4,30.06,North,0,0.0,0.0,75,0.00,,SCT120,0.00,VWS V14.01,2013-05-18 11:03:00,
2013-05-18 07:08:00,75.4,66.5,30.06,North,0,0.0,0.0,74,0.00,,SCT120,0.00,VWS V14.01,2013-05-18 11:08:00,
2013-05-18 07:13:00,75.7,66.5,30.06,North,0,0.0,0.0,73,0.00,,SCT120,0.00,VWS V14.01,2013-05-18 11:13:00,
2013-05-18 07:18:00,76.3,67.0,30.06,North,0,0.0,0.0,73,0.00,,SCT120,0.00,VWS V14.01,2013-05-18 11:18:00,
2013-05-18 07:23:00,77.0,67.3,30.06,North,0,0.0,0.0,72,0.00,,SCT120,0.00,VWS V14.01,2013-05-18 11:23:00,
2013-05-18 07:28:00,77.5,67.4,30.06,North,0,0.0,0.0,71,0.00,,SCT120,0.00,VWS V14.01,2013-05-18 11:28:00,
2013-05-18 07:33:00,78.1,67.5,30.06,North,0,0.0,0.0,70,0.00,,SCT120,0.00,VWS V14.01,2013-05-18 11:33:00,
2013-05-18 07:38:00,78.6,67.6,30.06,North,0,0.0,0.0,69,0.00,,SCT120,0.00,VWS V14.01,2013-05-18 11:38:00,
2013-05-18 07:43:00,79.0,66.7,30.06,North,0,0.0,0.0,66,0.00,,SCT120,0.00,VWS V14.01,2013-05-18 11:43:00,
2013-05-18 07:49:00,79.3,65.2,30.06,North,0,0.0,0.0,62,0.00,,SCT120,0.00,VWS V14.01,2013-05-18 11:49:00,
2013-05-18 07:53:00,79.7,63.6,30.06,North,0,0.0,0.0,58,0.00,,SCT120,0.00,VWS V14.01,2013-05-18 11:53:00,
2013-05-18 07:58:00,79.9,62.3,30.03,North,0,0.0,0.0,55,0.00,,SCT120,0.00,VWS V14.01,2013-05-18 11:58:00,
2013-05-18 08:03:00,80.8,61.0,30.03,North,0,0.0,0.0,51,0.00,,SCT120,0.00,VWS V14.01,2013-05-18 12:03:00,
2013-05-18 08:08:00,81.3,60.3,30.03,North,0,0.0,0.0,49,0.00,,SCT120,0.00,VWS V14.01,2013-05-18 12:08:00,
2013-05-18 08:13:00,81.7,60.1,30.06,North,0,0.0,0.0,48,0.00,,SCT120,0.00,VWS V14.01,2013-05-18 12:13:00,
2013-05-18 08:18:00,81.5,58.8,30.06,North,0,0.0,0.0,46,0.00,,SCT120,0.00,VWS V14.01,2013-05-18 12:18:00,
2013-05-18 08:23:00,80.6,57.9,30.06,North,0,0.0,0.0,46,0.00,,SCT120,0.00,VWS V14.01,2013-05-18 12:23:00,
2013-05-18 08:28:00,80.8,59.3,30.06,North,0,0.0,0.0,48,0.00,,SCT120,0.00,VWS V14.01,2013-05-18 12:28:00,
2013-05-18 08:33:00,81.1,59.6,30.06,North,0,0.0,0.0,48,0.00,,SCT120,0.00,VWS V14.01,2013-05-18 12:33:00,
2013-05-18 08:39:00,81.9,59.1,30.06,North,0,0.0,0.0,46,0.00,,SCT120,0.00,VWS V14.01,2013-05-18 12:39:00,
2013-05-18 08:44:00,82.2,58.8,30.06,North,0,0.0,0.0,45,0.00,,SCT120,0.00,VWS V14.01,2013-05-18 12:44:00,
2013-05-18 08:49:00,82.9,58.8,30.06,North,0,0.0,0.0,44,0.00,,SCT120,0.00,VWS V14.01,2013-05-18 12:49:00,
2013-05-18 08:54:00,83.3,57.8,30.06,North,0,0.0,0.0,42,0.00,,SCT120,0.00,VWS V14.01,2013-05-18 12:54:00,
2013-05-18 08:59:00,84.0,58.5,30.06,North,0,0.0,0.0,42,0.00,,SCT120,0.00,VWS V14.01,2013-05-18 12:59:00,
2013-05-18 09:04:00,84.7,58.5,30.06,North,0,0.0,0.0,41,0.00,,SCT120,0.00,VWS V14.01,2013-05-18 13:04:00,
2013-05-18 09:09:00,84.6,53.1,30.06,North,0,0.0,0.0,34,0.00,,SCT120,0.00,VWS V14.01,2013-05-18 13:09:00,
2013-05-18 09:14:00,84.7,52.5,30.06,North,0,0.0,0.0,33,0.00,,SCT120,0.00,VWS V14.01,2013-05-18 13:14:00,
2013-05-18 09:19:00,84.7,51.6,30.06,North,0,0.0,0.0,32,0.00,,SCT120,0.00,VWS V14.01,2013-05-18 13:19:00,
2013-05-18 09:24:00,84.7,52.5,30.06,North,0,0.0,0.0,33,0.00,,SCT120,0.00,VWS V14.01,2013-05-18 13:24:00,
2013-05-18 09:29:00,85.1,52.0,30.06,North,0,0.0,0.0,32,0.00,,SCT120,0.00,VWS V14.01,2013-05-18 13:29:00,
2013-05-18 09:34:00,84.7,50.8,30.06,North,0,0.0,0.0,31,0.00,,SCT120,0.00,VWS V14.01,2013-05-18 13:34:00,
2013-05-18 09:39:00,84.9,50.9,30.06,North,0,0.0,0.0,31,0.00,,SCT120,0.00,VWS V14.01,2013-05-18 13:39:00,
2013-05-18 09:44:00,86.0,51.0,30.06,North,0,0.0,0.0,30,0.00,,SCT120,0.00,VWS V14.01,2013-05-18 13:44:00,
2013-05-18 09:49:00,85.1,50.2,30.06,North,0,0.0,0.0,30,0.00,,SCT120,0.00,VWS V14.01,2013-05-18 13:49:00,
2013-05-18 09:53:00,84.9,50.9,30.06,North,0,0.0,0.0,31,0.00,,SCT120,0.00,VWS V14.01,2013-05-18 13:53:00,
2013-05-18 09:58:00,84.9,50.9,30.06,North,0,0.0,0.0,31,0.00,,SCT120,0.00,VWS V14.01,2013-05-18 13:58:00,
2013-05-18 10:03:00,86.2,51.1,30.06,North,0,0.0,0.0,30,0.00,,SCT120,0.00,VWS V14.01,2013-05-18 14:03:00,
2013-05-18 10:08:00,86.9,49.9,30.06,North,0,0.0,0.0,28,0.00,,SCT120,0.00,VWS V14.01,2013-05-18 14:08:00,
2013-05-18 10:13:00,87.3,50.2,30.06,North,0,0.0,0.0,28,0.00,,SCT120,0.00,VWS V14.01,2013-05-18 14:13:00,
2013-05-18 10:18:00,88.2,47.9,30.06,North,0,0.0,0.0,25,0.00,,SCT120,0.00,VWS V14.01,2013-05-18 14:18:00,
2013-05-18 10:23:00,86.9,46.9,30.06,North,0,0.0,0.0,25,0.00,,SCT120,0.00,VWS V14.01,2013-05-18 14:23:00,
2013-05-18 10:28:00,87.6,47.5,30.06,North,0,0.0,0.0,25,0.00,,SCT120,0.00,VWS V14.01,2013-05-18 14:28:00,
2013-05-18 10:33:00,88.5,46.0,30.06,North,0,0.0,0.0,23,0.00,,SCT120,0.00,VWS V14.01,2013-05-18 14:33:00,
2013-05-18 10:38:00,89.1,44.1,30.06,North,0,0.0,0.0,21,0.00,,SCT120,0.00,VWS V14.01,2013-05-18 14:38:00,
2013-05-18 10:43:00,89.4,44.4,30.03,North,0,0.0,0.0,21,0.00,,SCT120,0.00,VWS V14.01,2013-05-18 14:43:00,
2013-05-18 10:48:00,88.3,43.5,30.03,North,0,0.0,0.0,21,0.00,,SCT120,0.00,VWS V14.01,2013-05-18 14:48:00,
2013-05-18 10:53:00,88.0,45.6,30.03,North,0,0.0,0.0,23,0.00,,SCT120,0.00,VWS V14.01,2013-05-18 14:53:00,
2013-05-18 10:58:00,89.1,42.8,30.03,North,0,0.0,0.0,20,0.00,,SCT120,0.00,VWS V14.01,2013-05-18 14:58:00,
2013-05-18 11:03:00,87.6,42.9,30.03,North,0,0.0,0.0,21,0.00,,SCT120,0.00,VWS V14.01,2013-05-18 15:03:00,
2013-05-18 11:08:00,88.5,44.9,30.03,North,0,0.0,0.0,22,0.00,,SCT120,0.00,VWS V14.01,2013-05-18 15:08:00,
2013-05-18 11:13:00,89.4,41.8,30.03,North,0,0.0,0.0,19,0.00,,SCT120,0.00,VWS V14.01,2013-05-18 15:13:00,
2013-05-18 11:18:00,90.0,40.8,30.03,North,0,0.0,0.0,18,0.00,,SCT120,0.00,VWS V14.01,2013-05-18 15:18:00,
2013-05-18 11:23:00,88.7,41.2,30.03,North,0,0.0,0.0,19,0.00,,SCT120,0.00,VWS V14.01,2013-05-18 15:23:00,
2013-05-18 11:28:00,86.9,42.3,30.03,North,0,0.0,0.0,21,0.00,,SCT120,0.00,VWS V14.01,2013-05-18 15:28:00,
2013-05-18 11:33:00,87.8,44.3,30.03,North,0,0.0,0.0,22,0.00,,SCT120,0.00,VWS V14.01,2013-05-18 15:33:00,
2013-05-18 11:38:00,88.9,43.9,30.03,North,0,0.0,0.0,21,0.00,,SCT120,0.00,VWS V14.01,2013-05-18 15:38:00,
2013-05-18 11:43:00,90.3,41.1,30.03,North,0,0.0,0.0,18,0.00,,SCT120,0.00,VWS V14.01,2013-05-18 15:43:00,
2013-05-18 11:48:00,90.5,42.7,30.03,North,0,0.0,0.0,19,0.00,,SCT120,0.00,VWS V14.01,2013-05-18 15:48:00,
2013-05-18 11:53:00,90.7,41.4,30.03,North,0,0.0,0.0,18,0.00,,SCT120,0.00,VWS V14.01,2013-05-18 15:53:00,
2013-05-18 11:58:00,90.5,41.3,30.00,North,0,0.0,0.0,18,0.00,,SCT120,0.00,VWS V14.01,2013-05-18 15:58:00,
2013-05-18 12:03:00,91.2,41.8,30.00,North,0,0.0,0.0,18,0.00,,SCT120,0.00,VWS V14.01,2013-05-18 16:03:00,
2013-05-18 12:08:00,90.9,36.9,30.00,North,0,0.0,0.0,15,0.00,,SCT120,0.00,VWS V14.01,2013-05-18 16:08:00,
2013-05-18 12:13:00,90.9,40.1,30.03,North,0,0.0,0.0,17,0.00,,SCT120,0.00,VWS V14.01,2013-05-18 16:13:00,
2013-05-18 12:18:00,91.0,40.2,30.03,North,0,0.0,0.0,17,0.00,,SCT120,0.00,VWS V14.01,2013-05-18 16:18:00,
2013-05-18 12:23:00,92.1,41.1,30.03,North,0,0.0,0.0,17,0.00,,SCT120,0.00,VWS V14.01,2013-05-18 16:23:00,
2013-05-18 12:28:00,90.7,39.9,30.03,North,0,0.0,0.0,17,0.00,,SCT120,0.00,VWS V14.01,2013-05-18 16:28:00,
2013-05-18 12:33:00,90.0,42.2,30.03,North,0,0.0,0.0,19,0.00,,SCT120,0.00,VWS V14.01,2013-05-18 16:33:00,
2013-05-18 12:38:00,89.6,40.5,30.03,North,0,0.0,0.0,18,0.00,,SCT120,0.00,VWS V14.01,2013-05-18 16:38:00,
2013-05-18 12:43:00,90.3,41.1,30.03,North,0,0.0,0.0,18,0.00,,SCT120,0.00,VWS V14.01,2013-05-18 16:43:00,
2013-05-18 12:48:00,91.8,40.8,30.03,North,0,0.0,0.0,17,0.00,,SCT120,0.00,VWS V14.01,2013-05-18 16:48:00,
2013-05-18 12:53:00,88.7,39.8,30.03,North,0,0.0,0.0,18,0.00,,SCT120,0.00,VWS V14.01,2013-05-18 16:53:00,
2013-05-18 12:58:00,90.3,41.1,30.00,North,0,0.0,0.0,18,0.00,,SCT120,0.00,VWS V14.01,2013-05-18 16:58:00,
2013-05-18 13:03:00,92.3,41.2,30.00,North,0,0.0,0.0,17,0.00,,SCT120,0.00,VWS V14.01,2013-05-18 17:03:00,
2013-05-18 13:08:00,91.6,40.7,30.00,North,0,0.0,0.0,17,0.00,,SCT120,0.00,VWS V14.01,2013-05-18 17:08:00,
2013-05-18 13:13:00,90.7,41.4,30.00,North,0,0.0,0.0,18,0.00,,SCT120,0.00,VWS V14.01,2013-05-18 17:13:00,
2013-05-18 13:18:00,90.7,41.4,30.00,North,0,0.0,0.0,18,0.00,,SCT120,0.00,VWS V14.01,2013-05-18 17:18:00,
2013-05-18 13:23:00,89.6,41.9,30.00,North,0,0.0,0.0,19,0.00,,SCT120,0.00,VWS V14.01,2013-05-18 17:23:00,
2013-05-18 13:28:00,90.5,41.3,30.00,North,0,0.0,0.0,18,0.00,,SCT120,0.00,VWS V14.01,2013-05-18 17:28:00,
2013-05-18 13:33:00,89.4,41.8,30.00,North,0,0.0,0.0,19,0.00,,SCT120,0.00,VWS V14.01,2013-05-18 17:33:00,
2013-05-18 13:38:00,89.8,42.1,30.00,North,0,0.0,0.0,19,0.00,,SCT120,0.00,VWS V14.01,2013-05-18 17:38:00,
2013-05-18 13:43:00,89.2,43.0,30.00,North,0,0.0,0.0,20,0.00,,SCT120,0.00,VWS V14.01,2013-05-18 17:43:00,
2013-05-18 13:48:00,90.5,42.7,30.00,North,0,0.0,0.0,19,0.00,,SCT120,0.00,VWS V14.01,2013-05-18 17:48:00,
2013-05-18 13:53:00,92.8,41.7,30.00,North,0,0.0,0.0,17,0.00,,SCT120,0.00,VWS V14.01,2013-05-18 17:53:00,
2013-05-18 13:58:00,92.1,41.1,30.00,North,0,0.0,0.0,17,0.00,,SCT120,0.00,VWS V14.01,2013-05-18 17:58:00,
2013-05-18 14:03:00,93.6,37.3,30.00,North,0,0.0,0.0,14,0.00,,SCT120,0.00,VWS V14.01,2013-05-18 18:03:00,
2013-05-18 14:08:00,94.3,31.8,30.00,North,0,0.0,0.0,11,0.00,,SCT120,0.00,VWS V14.01,2013-05-18 18:08:00,
2013-05-18 14:13:00,94.3,31.8,30.00,North,0,0.0,0.0,11,0.00,,SCT120,0.00,VWS V14.01,2013-05-18 18:13:00,
2013-05-18 14:18:00,93.7,31.4,30.00,North,0,0.0,0.0,11,0.00,,SCT120,0.00,VWS V14.01,2013-05-18 18:18:00,
2013-05-18 14:23:00,92.3,32.4,30.00,North,0,0.0,0.0,12,0.00,,SCT120,0.00,VWS V14.01,2013-05-18 18:23:00,
2013-05-18 14:28:00,92.8,36.7,30.00,North,0,0.0,0.0,14,0.00,,SCT120,0.00,VWS V14.01,2013-05-18 18:28:00,
2013-05-18 14:33:00,92.5,41.4,30.00,North,0,0.0,0.0,17,0.00,,SCT120,0.00,VWS V14.01,2013-05-18 18:33:00,
2013-05-18 14:38:00,91.6,40.7,30.00,North,0,0.0,0.0,17,0.00,,SCT120,0.00,VWS V14.01,2013-05-18 18:38:00,
2013-05-18 14:43:00,91.8,40.8,30.00,North,0,0.0,0.0,17,0.00,,SCT120,0.00,VWS V14.01,2013-05-18 18:43:00,
2013-05-18 14:48:00,92.1,41.1,30.00,North,0,0.0,0.0,17,0.00,,SCT120,0.00,VWS V14.01,2013-05-18 18:48:00,
2013-05-18 14:53:00,92.1,41.1,30.00,North,0,0.0,0.0,17,0.00,,SCT120,0.00,VWS V14.01,2013-05-18 18:53:00,
2013-05-18 14:58:00,92.5,41.4,30.00,North,0,0.0,0.0,17,0.00,,SCT120,0.00,VWS V14.01,2013-05-18 18:58:00,
2013-05-18 15:03:00,92.3,41.2,30.00,North,0,0.0,0.0,17,0.00,,SCT120,0.00,VWS V14.01,2013-05-18 19:03:00,
2013-05-18 15:08:00,91.8,42.3,30.00,North,0,0.0,0.0,18,0.00,,SCT120,0.00,VWS V14.01,2013-05-18 19:08:00,
2013-05-18 15:13:00,90.9,43.0,29.97,North,0,0.0,0.0,19,0.00,,SCT120,0.00,VWS V14.01,2013-05-18 19:13:00,
2013-05-18 15:18:00,90.1,43.7,29.97,North,0,0.0,0.0,20,0.00,,SCT120,0.00,VWS V14.01,2013-05-18 19:18:00,
2013-05-18 20:25:00,84.0,51.0,30.03,North,0,0.0,0.0,32,0.00,,SCT120,0.00,VWS V14.01,2013-05-19 00:25:00,
2013-05-18 20:30:00,84.0,51.0,30.03,North,0,0.0,0.0,32,0.00,,SCT120,0.00,VWS V14.01,2013-05-19 00:30:00,
2013-05-18 20:35:00,84.0,51.8,30.03,North,0,0.0,0.0,33,0.00,,SCT120,0.00,VWS V14.01,2013-05-19 00:35:00,
2013-05-18 20:40:00,83.7,51.5,30.03,North,0,0.0,0.0,33,0.00,,SCT120,0.00,VWS V14.01,2013-05-19 00:40:00,
2013-05-18 20:45:00,83.8,51.7,30.03,North,0,0.0,0.0,33,0.00,,SCT120,0.00,VWS V14.01,2013-05-19 00:45:00,
2013-05-18 20:50:00,83.8,51.7,30.03,North,0,0.0,0.0,33,0.00,,SCT120,0.00,VWS V14.01,2013-05-19 00:50:00,
2013-05-18 20:55:00,83.7,51.5,30.03,North,0,0.0,0.0,33,0.00,,SCT120,0.00,VWS V14.01,2013-05-19 00:55:00,
2013-05-18 21:00:00,83.7,52.3,30.03,North,0,0.0,0.0,34,0.00,,SCT120,0.00,VWS V14.01,2013-05-19 01:00:00,
2013-05-18 21:05:00,83.5,52.2,30.03,North,0,0.0,0.0,34,0.00,,SCT120,0.00,VWS V14.01,2013-05-19 01:05:00,
2013-05-18 21:10:00,83.3,52.0,30.03,North,0,0.0,0.0,34,0.00,,SCT120,0.00,VWS V14.01,2013-05-19 01:10:00,
2013-05-18 21:15:00,83.3,52.8,30.03,North,0,0.0,0.0,35,0.00,,SCT120,0.00,VWS V14.01,2013-05-19 01:15:00,
2013-05-18 21:20:00,83.3,52.8,30.03,North,0,0.0,0.0,35,0.00,,SCT120,0.00,VWS V14.01,2013-05-19 01:20:00,
2013-05-18 21:25:00,83.3,52.8,30.03,North,0,0.0,0.0,35,0.00,,SCT120,0.00,VWS V14.01,2013-05-19 01:25:00,
2013-05-18 21:30:00,83.5,53.8,30.03,North,0,0.0,0.0,36,0.00,,SCT120,0.00,VWS V14.01,2013-05-19 01:30:00,
2013-05-18 21:35:00,83.5,53.8,30.03,North,0,0.0,0.0,36,0.00,,SCT120,0.00,VWS V14.01,2013-05-19 01:35:00,
2013-05-18 21:40:00,83.5,53.8,30.03,North,0,0.0,0.0,36,0.00,,SCT120,0.00,VWS V14.01,2013-05-19 01:40:00,
2013-05-18 21:45:00,83.5,53.8,30.03,North,0,0.0,0.0,36,0.00,,SCT120,0.00,VWS V14.01,2013-05-19 01:45:00,
2013-05-18 21:50:00,83.5,53.8,30.03,North,0,0.0,0.0,36,0.00,,SCT120,0.00,VWS V14.01,2013-05-19 01:50:00,
2013-05-18 21:55:00,83.1,54.2,30.03,North,0,0.0,0.0,37,0.00,,SCT120,0.00,VWS V14.01,2013-05-19 01:55:00,
2013-05-18 22:00:00,82.9,54.8,30.03,North,0,0.0,0.0,38,0.00,,SCT120,0.00,VWS V14.01,2013-05-19 02:00:00,
2013-05-18 22:05:00,82.6,55.1,30.03,North,0,0.0,0.0,39,0.00,,SCT120,0.00,VWS V14.01,2013-05-19 02:05:00,
2013-05-18 22:10:00,82.4,55.0,30.03,North,0,0.0,0.0,39,0.00,,SCT120,0.00,VWS V14.01,2013-05-19 02:10:00,
2013-05-18 22:15:00,82.4,55.0,30.03,North,0,0.0,0.0,39,0.00,,SCT120,0.00,VWS V14.01,2013-05-19 02:15:00,
2013-05-18 22:20:00,82.2,55.5,30.03,North,0,0.0,0.0,40,0.00,,SCT120,0.00,VWS V14.01,2013-05-19 02:20:00,
2013-05-18 22:25:00,82.2,55.5,30.03,North,0,0.0,0.0,40,0.00,,SCT120,0.00,VWS V14.01,2013-05-19 02:25:00,
2013-05-18 22:30:00,82.2,56.2,30.03,North,0,0.0,0.0,41,0.00,,SCT120,0.00,VWS V14.01,2013-05-19 02:30:00,
2013-05-18 22:35:00,82.0,56.0,30.03,North,0,0.0,0.0,41,0.00,,SCT120,0.00,VWS V14.01,2013-05-19 02:35:00,
2013-05-18 22:40:00,81.9,55.9,30.03,North,0,0.0,0.0,41,0.00,,SCT120,0.00,VWS V14.01,2013-05-19 02:40:00,
2013-05-18 22:45:00,81.9,55.9,30.03,North,0,0.0,0.0,41,0.00,,SCT120,0.00,VWS V14.01,2013-05-19 02:45:00,
2013-05-18 22:50:00,81.9,55.9,30.03,North,0,0.0,0.0,41,0.00,,SCT120,0.00,VWS V14.01,2013-05-19 02:50:00,
2013-05-18 22:55:00,81.7,55.7,30.03,North,0,0.0,0.0,41,0.00,,SCT120,0.00,VWS V14.01,2013-05-19 02:55:00,
2013-05-18 23:00:00,81.9,55.9,30.03,North,0,0.0,0.0,41,0.00,,SCT120,0.00,VWS V14.01,2013-05-19 03:00:00,
2013-05-18 23:05:00,81.7,55.7,30.03,North,0,0.0,0.0,41,0.00,,SCT120,0.00,VWS V14.01,2013-05-19 03:05:00,
2013-05-18 23:10:00,81.7,55.7,30.03,North,0,0.0,0.0,41,0.00,,SCT120,0.00,VWS V14.01,2013-05-19 03:10:00,
2013-05-18 23:15:00,81.3,56.1,30.03,North,0,0.0,0.0,42,0.00,,SCT120,0.00,VWS V14.01,2013-05-19 03:15:00,
2013-05-18 23:20:00,81.3,56.1,30.03,North,0,0.0,0.0,42,0.00,,SCT120,0.00,VWS V14.01,2013-05-19 03:20:00,
2013-05-18 23:25:00,81.3,56.1,30.03,North,0,0.0,0.0,42,0.00,,SCT120,0.00,VWS V14.01,2013-05-19 03:25:00,
2013-05-18 23:30:00,81.1,55.9,30.03,North,0,0.0,0.0,42,0.00,,SCT120,0.00,VWS V14.01,2013-05-19 03:30:00,
2013-05-18 23:35:00,81.1,56.5,30.03,North,0,0.0,0.0,43,0.00,,SCT120,0.00,VWS V14.01,2013-05-19 03:35:00,
2013-05-18 23:40:00,81.1,55.9,30.03,North,0,0.0,0.0,42,0.00,,SCT120,0.00,VWS V14.01,2013-05-19 03:40:00,
2013-05-18 23:45:00,81.0,55.7,30.03,North,0,0.0,0.0,42,0.00,,SCT120,0.00,VWS V14.01,2013-05-19 03:45:00,
2013-05-18 23:50:00,80.8,56.2,30.03,North,0,0.0,0.0,43,0.00,,SCT120,0.00,VWS V14.01,2013-05-19 03:50:00,
2013-05-18 23:55:00,80.6,56.1,30.03,North,0,0.0,0.0,43,0.00,,SCT120,0.00,VWS V14.01,2013-05-19 03:55:00,